OOCL Hamburg — VRZK9 — position and weather

sailwx.info

Track history (hours):
 
Tides and Currents Weather Stations Pressure Air Temp Water Temp Dewpoint Dewpoint Depression Visibility Wind Speed Wind Dir Waves Ship Positions

OOCL Hamburg

Last reported at 2017-Feb-22 16:26 UTC. Time now 2017-Feb-23 18:49 UTC.
Position N 39°55' W 031°56'.

Length 323 m; beam 42.8 m; draft 14.5 m.

Type: Cargo ship. MMSI: 477702000.

Date/timePositionNaut miles runAvg speedWind from/ knotsBaromVisibWave heightAir tempDewpointWater temp
2017-Feb-22 16:26N 39°55' W 031°56'4716.5
2017-Feb-22 13:33N 39°55' W 030°54'2618.6
2017-Feb-22 12:10N 39°52' W 030°21'1619.3
2017-Feb-22 11:22N 39°50' W 030°00'1619.6
2017-Feb-22 10:31N 39°48' W 029°39'1920.0
2017-Feb-22 09:33N 39°46' W 029°14'2019.6
2017-Feb-22 08:33N 39°44' W 028°49'1919.4
2017-Feb-22 07:33N 39°41' W 028°24'2019.5
2017-Feb-22 06:33N 39°39' W 027°59'1919.4
2017-Feb-22 05:33N 39°36' W 027°34'2219.3
2017-Feb-22 04:26N 39°33' W 027°06'1719.5
2017-Feb-22 03:33N 39°30' W 026°44'7919.8
2017-Feb-21 23:33N 39°18' W 025°03'2120.2
2017-Feb-21 22:31N 39°15' W 024°36'4320.1
2017-Feb-21 20:21N 39°07' W 023°41'2219.9
2017-Feb-21 19:16N 39°03' W 023°14'74019.9
2017-Feb-20 06:00N 35°54' W 008°12'9917.8 090 / 201024.010.8 17.012.515.8
2017-Feb-20 00:26N 35°58' W 006°10'2218.2
2017-Feb-19 23:14N 35°58' W 005°43'1217.6
2017-Feb-19 22:34N 35°60' W 005°29'1818.2
2017-Feb-19 21:33N 36°03' W 005°06'17618.5
2017-Feb-19 12:00N 36°30' W 001°30'67818.6 040 / 291024.010.8 16.010.315.0
2017-Feb-17 23:26N 36°59' E 012°36'3819.2
2017-Feb-17 21:27N 36°47' E 013°21'1818.7
2017-Feb-17 20:30N 36°42' E 013°42'1818.6
2017-Feb-17 19:34N 36°37' E 014°03'1918.7
2017-Feb-17 18:33N 36°30' E 014°25'1918.6
2017-Feb-17 17:32N 36°24' E 014°47'2318.4
2017-Feb-17 16:18N 36°18' E 015°15'1318.1
2017-Feb-17 15:33N 36°13' E 015°30'19019.9
2017-Feb-17 06:00N 35°12' E 019°12'22418.7 050 / 151030.110.8 14.011.215.2
2017-Feb-16 18:00N 34°00' E 023°30'22018.4 360 / 41029.110.8 15.0 9.215.8
2017-Feb-16 06:00N 32°54' E 027°42'   070 / 241021.610.8 14.0 8.015.8
Track history (hours):
 
Tides and Currents Weather Stations Pressure Air Temp Water Temp Dewpoint Dewpoint Depression Visibility Wind Speed Wind Dir Waves Ship Positions

OOCL Hamburg

Last reported at 2017-Feb-22 16:26 UTC. Time now 2017-Feb-23 18:49 UTC.
Position N 39°55' W 031°56'.

Length 323 m; beam 42.8 m; draft 14.5 m.

Type: Cargo ship. MMSI: 477702000.

Date/timePositionNaut miles runAvg speedWind from/ knotsBaromVisibWave heightAir tempDewpointWater temp
2017-Feb-22 16:26N 39°55' W 031°56'4716.5
2017-Feb-22 13:33N 39°55' W 030°54'2618.6
2017-Feb-22 12:10N 39°52' W 030°21'1619.3
2017-Feb-22 11:22N 39°50' W 030°00'1619.6
2017-Feb-22 10:31N 39°48' W 029°39'1920.0
2017-Feb-22 09:33N 39°46' W 029°14'2019.6
2017-Feb-22 08:33N 39°44' W 028°49'1919.4
2017-Feb-22 07:33N 39°41' W 028°24'2019.5
2017-Feb-22 06:33N 39°39' W 027°59'1919.4
2017-Feb-22 05:33N 39°36' W 027°34'2219.3
2017-Feb-22 04:26N 39°33' W 027°06'1719.5
2017-Feb-22 03:33N 39°30' W 026°44'7919.8
2017-Feb-21 23:33N 39°18' W 025°03'2120.2
2017-Feb-21 22:31N 39°15' W 024°36'4320.1
2017-Feb-21 20:21N 39°07' W 023°41'2219.9
2017-Feb-21 19:16N 39°03' W 023°14'74019.9
2017-Feb-20 06:00N 35°54' W 008°12'9917.8 090 / 201024.010.8 17.012.515.8
2017-Feb-20 00:26N 35°58' W 006°10'2218.2
2017-Feb-19 23:14N 35°58' W 005°43'1217.6
2017-Feb-19 22:34N 35°60' W 005°29'1818.2
2017-Feb-19 21:33N 36°03' W 005°06'17618.5
2017-Feb-19 12:00N 36°30' W 001°30'67818.6 040 / 291024.010.8 16.010.315.0
2017-Feb-17 23:26N 36°59' E 012°36'3819.2
2017-Feb-17 21:27N 36°47' E 013°21'1818.7
2017-Feb-17 20:30N 36°42' E 013°42'1818.6
2017-Feb-17 19:34N 36°37' E 014°03'1918.7
2017-Feb-17 18:33N 36°30' E 014°25'1918.6
2017-Feb-17 17:32N 36°24' E 014°47'2318.4
2017-Feb-17 16:18N 36°18' E 015°15'1318.1
2017-Feb-17 15:33N 36°13' E 015°30'19019.9
2017-Feb-17 06:00N 35°12' E 019°12'22418.7 050 / 151030.110.8 14.011.215.2
2017-Feb-16 18:00N 34°00' E 023°30'22018.4 360 / 41029.110.8 15.0 9.215.8
2017-Feb-16 06:00N 32°54' E 027°42'   070 / 241021.610.8 14.0 8.015.8

Dump ship's entire track history